Time;durP1;ratioP1;P1;durP2;ratioP2;P2;SDS_P1;SDS_P2;PMS_P1;PMS_P2;Temp;Humidity;BMP_temperature;BMP_pressure;BME280_temperature;BME280_humidity;BME280_pressure;Samples;Min_cycle;Max_cycle;Signal;HPM_P1;HPM_P2
2021/11/12 00:04:55;;;;;;;301.53;55.53;;;2.70;99.90;;;;;;6219916;23;20569;-95
2021/11/12 00:13:05;;;;;;;737.20;72.20;;;2.70;99.90;;;;;;6238000;23;20508;-96
2021/11/12 00:15:44;;;;;;;520.77;61.53;;;2.90;99.90;;;;;;6219049;23;20608;-96
2021/11/12 00:18:11;;;;;;;547.07;82.77;;;2.80;99.90;;;;;;6218019;23;20592;-95
2021/11/12 00:20:38;;;;;;;564.30;67.27;;;2.80;99.90;;;;;;6214140;23;21155;-96
2021/11/12 00:23:06;;;;;;;595.10;65.37;;;2.90;99.90;;;;;;6215683;23;20594;-95
2021/11/12 00:25:35;;;;;;;565.87;78.83;;;2.90;99.90;;;;;;6214473;23;20684;-96
2021/11/12 00:28:02;;;;;;;505.57;70.40;;;3.00;99.90;;;;;;6214166;23;20607;-95
2021/11/12 00:30:37;;;;;;;565.50;79.47;;;2.90;99.90;;;;;;6213833;23;20663;-95
2021/11/12 00:33:20;;;;;;;366.23;56.20;;;2.90;99.90;;;;;;6214317;23;20585;-95
2021/11/12 00:35:50;;;;;;;447.70;57.73;;;2.80;99.90;;;;;;6213403;23;20608;-95
2021/11/12 00:38:19;;;;;;;444.73;59.70;;;2.80;99.90;;;;;;6214417;23;21106;-95
2021/11/12 00:40:55;;;;;;;256.57;67.27;;;2.90;99.90;;;;;;6213812;23;20662;-95
2021/11/12 00:43:32;;;;;;;386.80;59.10;;;2.90;99.90;;;;;;6213352;23;20603;-95
2021/11/12 00:46:14;;;;;;;422.60;62.47;;;2.90;99.90;;;;;;6214376;23;20603;-96
2021/11/12 00:51:32;;;;;;;379.10;57.07;;;2.90;99.90;;;;;;6230748;23;20667;-95
2021/11/12 00:54:09;;;;;;;420.87;64.57;;;3.00;99.90;;;;;;6219826;23;20574;-94
2021/11/12 00:56:36;;;;;;;137.43;48.97;;;2.90;99.90;;;;;;6219462;23;20686;-95
2021/11/12 00:59:07;;;;;;;537.10;78.67;;;3.00;99.90;;;;;;6222316;23;21138;-95
2021/11/12 01:01:36;;;;;;;497.13;63.20;;;3.00;99.90;;;;;;6229709;23;20606;-94
2021/11/12 01:04:07;;;;;;;447.40;57.70;;;3.10;99.90;;;;;;6232197;23;20566;-95
2021/11/12 01:06:36;;;;;;;453.13;60.70;;;3.00;99.90;;;;;;6222453;23;20998;-95
2021/11/12 01:09:05;;;;;;;444.80;64.03;;;3.00;99.90;;;;;;6220820;23;20683;-95
2021/11/12 01:11:34;;;;;;;482.13;61.70;;;2.90;99.90;;;;;;6225081;23;20715;-95
2021/11/12 01:14:04;;;;;;;492.73;67.70;;;2.90;99.90;;;;;;6224144;23;20581;-95
2021/11/12 01:16:35;;;;;;;306.60;56.77;;;2.90;99.90;;;;;;6230391;23;20746;-95
2021/11/12 01:19:24;;;;;;;384.40;61.80;;;3.00;99.90;;;;;;6234045;23;20580;-96
2021/11/12 01:21:52;;;;;;;281.17;54.30;;;3.00;99.90;;;;;;6221669;23;20623;-94
2021/11/12 01:24:19;;;;;;;519.57;96.50;;;3.00;99.90;;;;;;6220231;23;20622;-96
2021/11/12 01:26:48;;;;;;;462.17;62.63;;;3.10;99.90;;;;;;6218709;23;20620;-96
2021/11/12 01:29:17;;;;;;;331.87;54.90;;;3.00;99.90;;;;;;6219213;23;20620;-95
2021/11/12 01:31:45;;;;;;;431.50;57.70;;;3.00;99.90;;;;;;6219010;23;20610;-96
2021/11/12 01:34:15;;;;;;;357.13;56.67;;;2.90;99.90;;;;;;6217965;23;20604;-96
2021/11/12 01:36:45;;;;;;;467.70;56.00;;;2.90;99.90;;;;;;6218847;23;20623;-95
2021/11/12 01:39:18;;;;;;;449.10;60.83;;;3.00;99.90;;;;;;6221426;23;20587;-95
2021/11/12 01:41:48;;;;;;;496.77;63.60;;;3.00;99.90;;;;;;6219662;23;21117;-96
2021/11/12 01:44:25;;;;;;;558.13;88.13;;;3.00;99.90;;;;;;6218931;23;20680;-95
2021/11/12 01:47:09;;;;;;;399.43;58.70;;;3.00;99.90;;;;;;6218742;23;20681;-95
2021/11/12 01:49:44;;;;;;;326.33;53.30;;;2.90;99.90;;;;;;6220956;23;20615;-94
2021/11/12 01:52:17;;;;;;;337.07;54.07;;;2.90;99.90;;;;;;6194629;23;21202;-95
2021/11/12 02:00:16;;;;;;;538.53;63.13;;;3.00;99.90;;;;;;6219763;23;20641;-96
2021/11/12 02:02:43;;;;;;;395.23;55.70;;;2.90;99.90;;;;;;6218968;23;20591;-95
2021/11/12 02:05:14;;;;;;;379.40;54.40;;;2.90;99.90;;;;;;6219399;23;20679;-96
2021/11/12 02:07:42;;;;;;;358.97;58.73;;;2.90;99.90;;;;;;6223546;23;21068;-96
2021/11/12 02:10:12;;;;;;;284.93;55.27;;;2.90;99.90;;;;;;6229429;23;20587;-96
2021/11/12 02:12:50;;;;;;;418.27;60.17;;;2.90;99.90;;;;;;6221574;23;20576;-95
2021/11/12 02:15:20;;;;;;;343.13;54.40;;;2.90;99.90;;;;;;6221331;23;20944;-95
2021/11/12 02:17:55;;;;;;;388.80;58.87;;;2.90;99.90;;;;;;6219404;23;20593;-95
2021/11/12 02:20:47;;;;;;;346.23;49.67;;;2.80;99.90;;;;;;6219628;23;20661;-96
2021/11/12 02:23:33;;;;;;;409.07;56.67;;;2.90;99.90;;;;;;6220122;23;21118;-96
2021/11/12 02:26:02;;;;;;;228.60;44.77;;;2.90;99.90;;;;;;6220194;23;20761;-96
2021/11/12 02:28:40;;;;;;;181.97;44.60;;;2.80;99.90;;;;;;6219193;23;20572;-96
2021/11/12 02:31:14;;;;;;;221.10;46.60;;;2.90;99.90;;;;;;6223912;23;20644;-95
2021/11/12 02:33:42;;;;;;;481.17;56.17;;;3.10;99.90;;;;;;6221248;23;20604;-96
2021/11/12 02:36:17;;;;;;;343.87;60.53;;;3.10;99.90;;;;;;6231232;23;20641;-95
2021/11/12 02:38:52;;;;;;;375.77;61.80;;;3.10;99.90;;;;;;6232915;23;20567;-96
2021/11/12 02:41:28;;;;;;;364.83;56.50;;;3.00;99.90;;;;;;6224558;23;20615;-96
2021/11/12 02:43:56;;;;;;;336.20;56.20;;;3.00;99.90;;;;;;6224345;23;20588;-96
2021/11/12 02:46:28;;;;;;;462.17;78.57;;;3.00;99.90;;;;;;6223624;23;20618;-96
2021/11/12 02:48:56;;;;;;;262.17;49.07;;;2.90;99.90;;;;;;6227188;23;20602;-95
2021/11/12 02:51:28;;;;;;;246.93;48.80;;;2.90;99.90;;;;;;6227336;23;20680;-95
2021/11/12 02:54:02;;;;;;;250.90;56.17;;;2.90;99.90;;;;;;6227663;23;20573;-95
2021/11/12 02:56:41;;;;;;;386.93;50.53;;;2.90;99.90;;;;;;6218915;23;20596;-96
2021/11/12 02:59:11;;;;;;;318.70;52.07;;;2.90;99.90;;;;;;6217898;23;20642;-95
2021/11/12 03:01:44;;;;;;;182.17;45.80;;;3.00;99.90;;;;;;6221020;23;20577;-96
2021/11/12 03:04:15;;;;;;;277.63;46.43;;;3.00;99.90;;;;;;6222831;23;20620;-96
2021/11/12 03:06:45;;;;;;;421.70;51.07;;;3.00;99.90;;;;;;6219098;23;21089;-95
2021/11/12 03:09:14;;;;;;;397.93;53.70;;;2.90;99.90;;;;;;6217582;23;20588;-96
2021/11/12 03:11:43;;;;;;;278.23;51.07;;;2.80;99.90;;;;;;6218514;23;20610;-96
2021/11/12 03:14:14;;;;;;;280.90;47.27;;;2.90;99.90;;;;;;6217529;23;20638;-95
2021/11/12 03:16:42;;;;;;;236.67;45.40;;;2.90;99.90;;;;;;6217624;23;20627;-96
2021/11/12 03:19:10;;;;;;;318.23;47.40;;;2.80;99.90;;;;;;6218720;23;20606;-95
2021/11/12 03:21:40;;;;;;;503.50;73.73;;;2.90;99.90;;;;;;6216671;23;20638;-96
2021/11/12 03:24:13;;;;;;;282.80;48.03;;;3.00;99.90;;;;;;6217546;23;20588;-94
2021/11/12 03:26:47;;;;;;;442.33;52.47;;;2.90;99.90;;;;;;6215044;23;20575;-95
2021/11/12 03:29:50;;;;;;;427.47;54.97;;;2.80;99.90;;;;;;6217214;23;20590;-95
2021/11/12 04:00:06;;;;;;;372.10;48.83;;;2.90;99.90;;;;;;6216587;23;20612;-95
2021/11/12 04:02:47;;;;;;;450.87;53.93;;;2.80;99.90;;;;;;6227975;23;21155;-94
2021/11/12 04:41:34;;;;;;;340.67;43.80;;;2.50;99.90;;;;;;6233031;23;20696;-96
2021/11/12 04:50:08;;;;;;;237.00;38.57;;;2.30;99.90;;;;;;6167028;23;20584;-96
2021/11/12 05:34:34;;;;;;;167.10;37.00;;;2.20;99.90;;;;;;6218380;23;20889;-94
2021/11/12 05:45:21;;;;;;;274.83;41.83;;;2.20;99.90;;;;;;6224682;23;20549;-94
2021/11/12 05:59:02;;;;;;;241.17;37.40;;;2.10;99.90;;;;;;6221418;23;20923;-94
2021/11/12 06:04:19;;;;;;;401.97;46.43;;;2.10;99.90;;;;;;6224946;23;20890;-94
2021/11/12 06:09:44;;;;;;;406.53;58.33;;;2.10;99.90;;;;;;6229076;23;20591;-95
2021/11/12 06:15:02;;;;;;;319.77;50.03;;;2.00;99.90;;;;;;6228413;23;20579;-93
2021/11/12 06:22:54;;;;;;;210.20;38.60;;;2.10;99.90;;;;;;6229328;23;20629;-94
2021/11/12 06:28:11;;;;;;;205.70;41.10;;;2.10;99.90;;;;;;6233745;23;20571;-94
2021/11/12 06:30:56;;;;;;;395.10;48.57;;;2.20;99.90;;;;;;6228982;23;20593;-94
2021/11/12 06:33:41;;;;;;;264.63;39.63;;;2.20;99.90;;;;;;6228300;23;20609;-94
2021/11/12 06:57:33;;;;;;;480.17;48.70;;;2.20;99.90;;;;;;6225062;23;20641;-95
2021/11/12 07:02:44;;;;;;;189.17;36.67;;;2.20;99.90;;;;;;6220218;23;20586;-96
2021/11/12 07:05:16;;;;;;;317.60;41.67;;;2.20;99.90;;;;;;6220342;23;20626;-94
2021/11/12 07:07:48;;;;;;;372.37;44.60;;;2.10;99.90;;;;;;6220510;23;21001;-94
2021/11/12 07:10:17;;;;;;;484.03;51.83;;;2.10;99.90;;;;;;6220576;23;20634;-95
2021/11/12 07:15:30;;;;;;;400.10;47.90;;;2.50;99.90;;;;;;6218188;23;20674;-94
2021/11/12 07:17:58;;;;;;;326.77;40.33;;;2.10;99.90;;;;;;6217824;23;20638;-94
2021/11/12 07:20:32;;;;;;;287.20;38.73;;;2.30;99.90;;;;;;6217572;23;20634;-94
2021/11/12 07:23:00;;;;;;;205.30;35.70;;;2.10;99.90;;;;;;6220555;23;20615;-94
2021/11/12 07:25:35;;;;;;;377.97;43.60;;;2.20;99.90;;;;;;6220439;23;20587;-95
2021/11/12 07:28:07;;;;;;;390.23;45.83;;;2.70;99.90;;;;;;6225143;23;20575;-94
2021/11/12 07:30:41;;;;;;;370.83;43.50;;;2.20;99.90;;;;;;6218785;23;20645;-94
2021/11/12 07:33:08;;;;;;;232.90;37.90;;;2.30;99.90;;;;;;6216736;23;20962;-94
2021/11/12 07:35:38;;;;;;;283.93;39.70;;;2.40;99.90;;;;;;6215984;23;20582;-94
2021/11/12 07:38:18;;;;;;;284.10;37.70;;;2.30;99.90;;;;;;6217612;23;20611;-94
2021/11/12 07:41:00;;;;;;;301.60;40.67;;;2.90;99.90;;;;;;6220191;23;20632;-94
2021/11/12 07:46:57;;;;;;;497.10;51.83;;;2.60;99.90;;;;;;6226592;23;20519;-93
2021/11/12 15:38:05;;;;;;;48.33;43.03;;;4.50;99.90;;;;;;6175282;23;20607;-96
2021/11/12 15:52:04;;;;;;;53.53;48.20;;;4.50;99.90;;;;;;6176230;23;20604;-96
2021/11/12 16:07:25;;;;;;;59.17;38.97;;;4.50;99.90;;;;;;6081781;23;20626;-96
2021/11/12 16:23:39;;;;;;;95.00;42.40;;;4.10;99.90;;;;;;6143758;23;20608;-95
2021/11/12 16:29:34;;;;;;;89.90;44.40;;;4.00;99.90;;;;;;5146681;27;20273;-96
2021/11/12 16:32:19;;;;;;;48.10;42.97;;;4.20;99.90;;;;;;5129458;28;20653;-95
2021/11/12 16:34:59;;;;;;;68.73;39.20;;;4.20;99.90;;;;;;5123907;28;20622;-96
2021/11/12 16:37:28;;;;;;;45.17;40.90;;;4.10;99.90;;;;;;5124590;28;20690;-96
2021/11/12 16:39:58;;;;;;;42.23;38.13;;;4.40;99.90;;;;;;5119999;28;21181;-96
2021/11/12 16:46:04;;;;;;;98.33;37.80;;;4.20;99.90;;;;;;5105663;28;21029;-96
2021/11/12 16:51:53;;;;;;;62.07;35.70;;;4.00;99.90;;;;;;5111181;28;20626;-96
2021/11/12 16:54:37;;;;;;;40.97;34.27;;;4.00;99.90;;;;;;5121026;28;20623;-96
2021/11/12 17:09:47;;;;;;;77.13;34.37;;;4.40;99.90;;;;;;5124866;28;20618;-96
2021/11/12 17:15:29;;;;;;;95.70;40.43;;;4.00;99.90;;;;;;5109941;28;20694;-96
